createdAt,value
2022-09-01T00:03:24.365Z,10.48
2022-09-01T00:08:28.086Z,9.73
2022-09-01T00:13:33.233Z,10.13
2022-09-01T00:18:35.976Z,9.55
2022-09-01T00:23:38.091Z,7.80
2022-09-01T00:28:40.751Z,8.65
2022-09-01T00:33:42.274Z,7.68
2022-09-01T00:38:44.186Z,8.18
2022-09-01T00:43:55.926Z,9.02
2022-09-01T00:49:02.863Z,7.07
2022-09-01T00:54:08.595Z,7.47
2022-09-01T00:59:12.434Z,6.95
2022-09-01T01:04:17.238Z,6.40
2022-09-01T01:09:21.784Z,8.45
2022-09-01T01:14:23.780Z,7.65
2022-09-01T01:20:06.178Z,7.50
2022-09-01T01:25:07.945Z,7.00
2022-09-01T01:30:11.739Z,6.88
2022-09-01T01:35:16.006Z,6.90
2022-09-01T01:40:20.308Z,6.97
2022-09-01T01:45:23.885Z,6.97
2022-09-01T01:50:35.875Z,7.93
2022-09-01T01:55:37.611Z,9.63
2022-09-01T02:00:39.387Z,8.93
2022-09-01T02:05:40.860Z,8.65
2022-09-01T02:10:45.378Z,8.57
2022-09-01T02:15:50.352Z,9.05
2022-09-01T02:20:52.988Z,7.85
2022-09-01T02:26:15.625Z,8.60
2022-09-01T02:31:20.027Z,8.02
2022-09-01T02:36:22.172Z,10.02
2022-09-01T02:41:27.199Z,10.48
2022-09-01T02:46:29.667Z,11.75
2022-09-01T02:51:31.576Z,12.13
2022-09-01T02:56:33.063Z,11.88
2022-09-01T03:01:34.646Z,10.85
2022-09-01T03:06:37.542Z,11.50
2022-09-01T03:11:42.543Z,12.55
2022-09-01T03:16:44.566Z,11.02
2022-09-01T03:21:46.815Z,10.90
2022-09-01T03:26:50.785Z,11.50
2022-09-01T03:31:52.356Z,13.20
2022-09-01T03:36:54.970Z,13.32
2022-09-01T03:41:58.146Z,13.20
2022-09-01T03:47:01.407Z,14.73
2022-09-01T03:52:03.754Z,14.95
2022-09-01T03:57:06.879Z,14.68
2022-09-01T04:02:08.382Z,17.20
2022-09-01T04:07:09.866Z,18.52
2022-09-01T04:12:17.271Z,18.35
2022-09-01T04:17:37.481Z,17.50
2022-09-01T04:22:39.131Z,17.05
2022-09-01T04:27:40.968Z,17.45
2022-09-01T04:32:46.770Z,15.52
2022-09-01T04:37:48.485Z,14.57
2022-09-01T04:42:49.916Z,14.07
2022-09-01T04:47:52.436Z,14.43
2022-09-01T04:52:56.342Z,17.65
2022-09-01T04:58:07.191Z,14.95
2022-09-01T05:03:11.764Z,13.18
2022-09-01T05:08:23.649Z,12.93
2022-09-01T05:13:27.311Z,13.55
2022-09-01T05:18:29.104Z,12.95
2022-09-01T05:23:32.130Z,13.43
2022-09-01T05:28:33.600Z,14.27
2022-09-01T05:33:36.992Z,13.07
2022-09-01T05:38:42.144Z,13.48
2022-09-01T05:43:50.473Z,11.40
2022-09-01T05:48:53.930Z,11.90
2022-09-01T05:53:59.313Z,10.88
2022-09-01T06:04:25.649Z,9.35
2022-09-01T06:09:27.527Z,8.75
2022-09-01T06:14:28.988Z,8.50
2022-09-01T06:19:36.696Z,9.15
2022-09-01T06:24:40.842Z,8.13
2022-09-01T06:29:45.496Z,8.50
2022-09-01T06:34:51.265Z,7.13
2022-09-01T06:39:52.872Z,7.63
2022-09-01T06:44:54.595Z,7.00
2022-09-01T06:49:59.392Z,5.20
2022-09-01T06:55:04.505Z,6.45
2022-09-01T07:11:19.970Z,5.07
2022-09-01T07:16:37.362Z,5.38
2022-09-01T07:22:06.818Z,5.32
2022-09-01T07:27:09.237Z,5.82
2022-09-01T07:48:07.121Z,6.00
2022-09-01T07:53:09.337Z,5.10
2022-09-01T07:58:12.606Z,5.53
2022-09-01T08:03:14.683Z,4.70
2022-09-01T08:08:19.964Z,5.03
2022-09-01T08:13:22.501Z,5.57
2022-09-01T08:18:24.043Z,5.13
2022-09-01T08:23:27.266Z,5.05
2022-09-01T08:28:28.935Z,5.93
2022-09-01T08:33:31.131Z,5.18
2022-09-01T08:38:32.676Z,4.78
2022-09-01T08:43:51.726Z,6.25
2022-09-01T08:54:40.074Z,5.60
2022-09-01T08:59:42.078Z,4.28
2022-09-01T09:05:21.633Z,3.88
2022-09-01T09:10:29.631Z,4.40
2022-09-01T09:15:47.487Z,4.15
2022-09-01T09:20:49.709Z,3.42
2022-09-01T09:25:52.055Z,4.35
2022-09-01T09:31:50.531Z,4.05
2022-09-01T09:36:55.362Z,3.45
2022-09-01T09:42:09.924Z,3.42
2022-09-01T09:47:43.767Z,3.65
2022-09-01T09:52:48.144Z,3.30
2022-09-01T09:57:52.869Z,3.10
2022-09-01T10:02:58.346Z,2.80
2022-09-01T10:07:59.880Z,3.05
2022-09-01T10:13:02.363Z,2.53
2022-09-01T10:18:32.581Z,2.45
2022-09-01T10:23:36.986Z,2.90
2022-09-01T10:28:50.841Z,2.63
2022-09-01T10:33:53.039Z,2.28
2022-09-01T10:39:04.558Z,2.97
2022-09-01T10:44:19.344Z,2.75
2022-09-01T10:49:28.040Z,2.88
2022-09-01T10:54:50.822Z,3.33
2022-09-01T10:59:56.464Z,3.53
2022-09-01T11:04:58.634Z,3.22
2022-09-01T11:10:32.827Z,3.47
2022-09-01T11:15:42.836Z,3.25
2022-09-01T11:20:46.993Z,3.60
2022-09-01T11:31:28.500Z,3.65
2022-09-01T11:36:35.381Z,3.38
2022-09-01T11:41:40.157Z,3.65
2022-09-01T11:46:45.481Z,3.88
2022-09-01T11:51:48.375Z,4.28
2022-09-01T11:56:50.088Z,3.58
2022-09-01T12:01:58.357Z,3.33
2022-09-01T12:07:02.920Z,3.42
2022-09-01T12:12:07.326Z,3.08
2022-09-01T12:17:09.465Z,3.85
2022-09-01T12:22:18.549Z,4.00
2022-09-01T12:27:23.142Z,3.25
2022-09-01T12:32:24.616Z,2.97
2022-09-01T12:37:27.436Z,3.17
2022-09-01T12:42:37.895Z,3.75
2022-09-01T12:47:50.374Z,3.75
2022-09-01T12:52:54.852Z,3.17
2022-09-01T12:57:59.267Z,3.10
2022-09-01T13:03:11.596Z,3.05
2022-09-01T13:08:18.313Z,3.10
2022-09-01T13:13:22.279Z,3.42
2022-09-01T13:18:26.087Z,3.15
2022-09-01T13:23:27.769Z,2.67
2022-09-01T13:28:29.256Z,2.38
2022-09-01T13:34:09.426Z,2.67
2022-09-01T13:38:55.667Z,2.65
2022-09-01T13:43:57.874Z,2.15
2022-09-01T13:49:03.085Z,2.33
2022-09-01T13:54:04.941Z,2.33
2022-09-01T13:59:07.684Z,2.35
2022-09-01T14:04:10.371Z,2.40
2022-09-01T14:09:17.463Z,2.72
2022-09-01T14:14:19.249Z,2.53
2022-09-01T14:19:21.306Z,2.60
2022-09-01T14:24:23.249Z,2.33
2022-09-01T14:29:24.995Z,2.40
2022-09-01T14:34:26.546Z,2.70
2022-09-01T14:39:28.687Z,2.28
2022-09-01T14:44:30.166Z,1.95
2022-09-01T14:49:37.053Z,2.13
2022-09-01T14:54:42.207Z,1.85
2022-09-01T14:59:43.920Z,1.77
2022-09-01T15:04:45.565Z,2.13
2022-09-01T15:09:47.190Z,1.80
2022-09-01T15:14:49.149Z,2.63
2022-09-01T15:19:50.796Z,2.42
2022-09-01T15:24:52.330Z,1.92
2022-09-01T15:29:55.951Z,1.92
2022-09-01T15:34:57.518Z,1.85
2022-09-01T15:39:59.186Z,2.47
2022-09-01T15:45:00.852Z,1.90
2022-09-01T15:50:06.330Z,2.17
2022-09-01T15:55:08.812Z,2.30
2022-09-01T16:00:11.610Z,2.30
2022-09-01T16:05:14.163Z,2.10
2022-09-01T16:10:15.686Z,2.30
2022-09-01T16:15:20.038Z,1.60
2022-09-01T16:20:36.649Z,1.95
2022-09-01T16:25:38.196Z,2.13
2022-09-01T16:30:40.064Z,2.00
2022-09-01T16:36:00.226Z,1.70
2022-09-01T16:41:13.863Z,2.30
2022-09-01T16:46:34.886Z,2.00
2022-09-01T16:51:55.377Z,2.25
2022-09-01T16:57:16.255Z,2.45
2022-09-01T17:02:35.933Z,2.33
2022-09-01T17:07:49.973Z,2.10
2022-09-01T17:12:56.091Z,2.42
2022-09-01T17:18:22.210Z,2.42
2022-09-01T17:23:28.925Z,2.42
2022-09-01T17:28:55.349Z,2.35
2022-09-01T17:34:06.336Z,1.88
2022-09-01T17:39:32.331Z,1.85
2022-09-01T17:44:45.417Z,2.40
2022-09-01T17:50:12.914Z,2.67
2022-09-01T17:55:46.148Z,2.20
2022-09-01T18:01:14.397Z,2.42
2022-09-01T18:06:24.652Z,2.50
2022-09-01T18:11:49.277Z,2.05
2022-09-01T18:17:00.567Z,2.50
2022-09-01T18:22:08.456Z,2.60
2022-09-01T18:27:09.985Z,2.88
2022-09-01T18:32:25.543Z,2.50
2022-09-01T18:37:48.935Z,2.55
2022-09-01T18:43:18.017Z,2.83
2022-09-01T18:48:49.258Z,2.83
2022-09-01T18:54:16.133Z,3.08
2022-09-01T18:59:44.544Z,2.70
2022-09-01T19:04:49.770Z,3.47
2022-09-01T19:10:02.544Z,2.90
2022-09-01T19:15:28.948Z,2.70
2022-09-01T19:21:32.390Z,2.50
2022-09-01T19:26:51.952Z,2.72
2022-09-01T19:31:59.779Z,2.90
2022-09-01T19:37:03.239Z,2.55
2022-09-01T19:42:20.052Z,2.47
2022-09-01T19:47:36.068Z,2.28
2022-09-01T19:52:40.405Z,2.50
2022-09-01T19:57:56.948Z,2.13
2022-09-01T20:03:17.389Z,2.50
2022-09-01T20:13:34.895Z,2.60
2022-09-01T20:18:49.121Z,2.97
2022-09-01T20:24:08.331Z,3.45
2022-09-01T20:29:18.476Z,3.13
2022-09-01T20:34:32.865Z,3.40
2022-09-01T20:40:04.183Z,3.40
2022-09-01T20:45:19.508Z,3.33
2022-09-01T20:50:34.835Z,3.08
2022-09-01T20:56:05.729Z,3.22
2022-09-01T21:01:29.620Z,3.67
2022-09-01T21:06:54.745Z,4.22
2022-09-01T21:12:08.459Z,3.67
2022-09-01T21:17:23.174Z,3.20
2022-09-01T21:22:24.877Z,3.20
2022-09-01T21:27:31.220Z,3.00
2022-09-01T21:32:33.946Z,2.97
2022-09-01T21:37:35.918Z,3.30
2022-09-01T21:42:49.274Z,3.38
2022-09-01T21:47:51.970Z,3.35
2022-09-01T21:52:53.454Z,3.05
2022-09-01T21:57:55.475Z,3.40
2022-09-01T22:02:59.374Z,3.00
2022-09-01T22:08:01.540Z,2.83
2022-09-01T22:13:03.726Z,3.17
2022-09-01T22:18:05.236Z,3.60
2022-09-01T22:23:07.100Z,4.00
2022-09-01T22:28:09.111Z,3.25
2022-09-01T22:33:11.134Z,3.97
2022-09-01T22:38:13.554Z,3.33
2022-09-01T22:43:18.185Z,3.83
2022-09-01T22:48:23.942Z,4.50
2022-09-01T22:53:25.734Z,4.18
2022-09-01T22:58:27.291Z,3.47
2022-09-01T23:03:28.770Z,4.05
2022-09-01T23:08:30.380Z,3.90
2022-09-01T23:13:34.133Z,4.22
2022-09-01T23:18:38.285Z,3.88
2022-09-01T23:23:40.294Z,4.28
2022-09-01T23:28:45.959Z,4.22
2022-09-01T23:33:48.935Z,4.55
2022-09-01T23:38:52.307Z,4.45
2022-09-01T23:43:54.487Z,4.40
2022-09-01T23:48:56.289Z,4.10
2022-09-01T23:53:59.167Z,4.13
2022-09-01T23:59:01.229Z,3.97
